sensor_id;sensor_type;location;lat;lon;timestamp;P1;durP1;ratioP1;P2;durP2;ratioP2
67372;SDS011;54257;54.496;18.412;2022-10-30T00:01:00;3.10;;;1.50;;
67372;SDS011;54257;54.496;18.412;2022-10-30T00:03:37;4.80;;;2.00;;
67372;SDS011;54257;54.496;18.412;2022-10-30T00:06:04;2.10;;;1.20;;
67372;SDS011;54257;54.496;18.412;2022-10-30T00:08:31;4.60;;;2.00;;
67372;SDS011;54257;54.496;18.412;2022-10-30T00:11:09;3.70;;;2.20;;
67372;SDS011;54257;54.496;18.412;2022-10-30T00:13:38;5.50;;;2.40;;
67372;SDS011;54257;54.496;18.412;2022-10-30T00:16:09;4.90;;;1.40;;
67372;SDS011;54257;54.496;18.412;2022-10-30T00:18:37;3.50;;;1.60;;
67372;SDS011;54257;54.496;18.412;2022-10-30T00:21:09;7.60;;;1.80;;
67372;SDS011;54257;54.496;18.412;2022-10-30T00:23:43;3.70;;;1.50;;
67372;SDS011;54257;54.496;18.412;2022-10-30T00:26:12;3.80;;;1.40;;
67372;SDS011;54257;54.496;18.412;2022-10-30T00:28:39;3.10;;;1.50;;
67372;SDS011;54257;54.496;18.412;2022-10-30T00:31:07;4.60;;;2.10;;
67372;SDS011;54257;54.496;18.412;2022-10-30T00:33:35;3.90;;;1.40;;
67372;SDS011;54257;54.496;18.412;2022-10-30T00:36:02;4.80;;;1.90;;
67372;SDS011;54257;54.496;18.412;2022-10-30T00:38:30;3.40;;;1.70;;
67372;SDS011;54257;54.496;18.412;2022-10-30T00:40:57;3.60;;;1.60;;
67372;SDS011;54257;54.496;18.412;2022-10-30T00:43:34;2.10;;;1.50;;
67372;SDS011;54257;54.496;18.412;2022-10-30T00:49:07;3.70;;;1.40;;
67372;SDS011;54257;54.496;18.412;2022-10-30T00:51:39;4.90;;;1.50;;
67372;SDS011;54257;54.496;18.412;2022-10-30T00:54:13;4.80;;;1.30;;
67372;SDS011;54257;54.496;18.412;2022-10-30T00:56:43;6.20;;;1.60;;
67372;SDS011;54257;54.496;18.412;2022-10-30T00:59:15;5.20;;;2.00;;
67372;SDS011;54257;54.496;18.412;2022-10-30T01:01:48;5.80;;;1.50;;
67372;SDS011;54257;54.496;18.412;2022-10-30T01:04:16;4.50;;;1.50;;
67372;SDS011;54257;54.496;18.412;2022-10-30T01:06:44;4.40;;;1.90;;
67372;SDS011;54257;54.496;18.412;2022-10-30T01:09:14;3.60;;;1.50;;
67372;SDS011;54257;54.496;18.412;2022-10-30T01:11:41;3.60;;;1.60;;
67372;SDS011;54257;54.496;18.412;2022-10-30T01:14:08;4.70;;;1.40;;
67372;SDS011;54257;54.496;18.412;2022-10-30T01:19:20;6.60;;;1.80;;
67372;SDS011;54257;54.496;18.412;2022-10-30T01:24:57;3.70;;;1.90;;
67372;SDS011;54257;54.496;18.412;2022-10-30T01:33:04;3.30;;;1.40;;
67372;SDS011;54257;54.496;18.412;2022-10-30T01:35:52;3.90;;;1.60;;
67372;SDS011;54257;54.496;18.412;2022-10-30T01:39:02;5.30;;;1.60;;
67372;SDS011;54257;54.496;18.412;2022-10-30T01:41:47;6.70;;;2.00;;
67372;SDS011;54257;54.496;18.412;2022-10-30T01:44:18;5.30;;;2.10;;
67372;SDS011;54257;54.496;18.412;2022-10-30T01:46:57;9.00;;;1.60;;
67372;SDS011;54257;54.496;18.412;2022-10-30T02:00:25;6.20;;;2.20;;
67372;SDS011;54257;54.496;18.412;2022-10-30T02:02:53;8.50;;;2.00;;
67372;SDS011;54257;54.496;18.412;2022-10-30T02:05:37;4.10;;;1.50;;
67372;SDS011;54257;54.496;18.412;2022-10-30T02:08:10;4.30;;;1.70;;
67372;SDS011;54257;54.496;18.412;2022-10-30T02:10:36;5.00;;;1.90;;
67372;SDS011;54257;54.496;18.412;2022-10-30T02:13:05;3.30;;;1.70;;
67372;SDS011;54257;54.496;18.412;2022-10-30T02:15:32;7.30;;;2.60;;
67372;SDS011;54257;54.496;18.412;2022-10-30T02:17:59;5.90;;;2.30;;
67372;SDS011;54257;54.496;18.412;2022-10-30T02:20:26;2.90;;;1.80;;
67372;SDS011;54257;54.496;18.412;2022-10-30T02:22:53;3.60;;;1.80;;
67372;SDS011;54257;54.496;18.412;2022-10-30T02:25:21;5.80;;;1.90;;
67372;SDS011;54257;54.496;18.412;2022-10-30T02:27:48;2.80;;;1.60;;
67372;SDS011;54257;54.496;18.412;2022-10-30T02:30:15;6.10;;;2.20;;
67372;SDS011;54257;54.496;18.412;2022-10-30T02:32:42;4.60;;;2.10;;
67372;SDS011;54257;54.496;18.412;2022-10-30T02:35:09;3.20;;;1.70;;
67372;SDS011;54257;54.496;18.412;2022-10-30T02:37:36;6.30;;;2.20;;
67372;SDS011;54257;54.496;18.412;2022-10-30T02:40:03;5.90;;;1.70;;
67372;SDS011;54257;54.496;18.412;2022-10-30T02:42:31;4.30;;;1.90;;
67372;SDS011;54257;54.496;18.412;2022-10-30T02:44:58;7.40;;;1.60;;
67372;SDS011;54257;54.496;18.412;2022-10-30T02:47:27;4.50;;;2.30;;
67372;SDS011;54257;54.496;18.412;2022-10-30T02:49:54;5.20;;;1.60;;
67372;SDS011;54257;54.496;18.412;2022-10-30T02:52:21;3.70;;;1.90;;
67372;SDS011;54257;54.496;18.412;2022-10-30T02:54:48;4.00;;;2.10;;
67372;SDS011;54257;54.496;18.412;2022-10-30T02:57:14;4.50;;;1.80;;
67372;SDS011;54257;54.496;18.412;2022-10-30T02:59:41;6.80;;;1.90;;
67372;SDS011;54257;54.496;18.412;2022-10-30T03:02:08;4.50;;;2.10;;
67372;SDS011;54257;54.496;18.412;2022-10-30T03:04:35;6.20;;;2.50;;
67372;SDS011;54257;54.496;18.412;2022-10-30T03:07:02;2.90;;;1.70;;
67372;SDS011;54257;54.496;18.412;2022-10-30T03:09:29;5.00;;;2.10;;
67372;SDS011;54257;54.496;18.412;2022-10-30T03:11:56;5.30;;;1.70;;
67372;SDS011;54257;54.496;18.412;2022-10-30T03:14:23;7.80;;;2.20;;
67372;SDS011;54257;54.496;18.412;2022-10-30T03:16:50;8.00;;;2.20;;
67372;SDS011;54257;54.496;18.412;2022-10-30T03:19:20;5.10;;;2.30;;
67372;SDS011;54257;54.496;18.412;2022-10-30T03:21:47;2.60;;;1.80;;
67372;SDS011;54257;54.496;18.412;2022-10-30T03:24:14;3.30;;;1.90;;
67372;SDS011;54257;54.496;18.412;2022-10-30T03:26:41;5.30;;;1.80;;
67372;SDS011;54257;54.496;18.412;2022-10-30T03:29:08;2.90;;;1.90;;
67372;SDS011;54257;54.496;18.412;2022-10-30T03:31:35;4.90;;;1.90;;
67372;SDS011;54257;54.496;18.412;2022-10-30T03:34:02;4.80;;;1.80;;
67372;SDS011;54257;54.496;18.412;2022-10-30T03:36:29;4.50;;;2.00;;
67372;SDS011;54257;54.496;18.412;2022-10-30T03:38:56;4.50;;;2.30;;
67372;SDS011;54257;54.496;18.412;2022-10-30T03:41:23;5.00;;;2.00;;
67372;SDS011;54257;54.496;18.412;2022-10-30T03:43:50;3.30;;;1.90;;
67372;SDS011;54257;54.496;18.412;2022-10-30T03:46:16;4.60;;;1.80;;
67372;SDS011;54257;54.496;18.412;2022-10-30T03:48:47;5.40;;;1.90;;
67372;SDS011;54257;54.496;18.412;2022-10-30T03:51:16;5.90;;;2.70;;
67372;SDS011;54257;54.496;18.412;2022-10-30T03:53:43;6.80;;;2.30;;
67372;SDS011;54257;54.496;18.412;2022-10-30T03:56:10;4.50;;;1.70;;
67372;SDS011;54257;54.496;18.412;2022-10-30T03:58:37;3.60;;;2.00;;
67372;SDS011;54257;54.496;18.412;2022-10-30T04:01:05;4.60;;;2.40;;
67372;SDS011;54257;54.496;18.412;2022-10-30T04:03:32;5.10;;;2.10;;
67372;SDS011;54257;54.496;18.412;2022-10-30T04:06:00;5.20;;;2.20;;
67372;SDS011;54257;54.496;18.412;2022-10-30T04:08:29;6.80;;;2.40;;
67372;SDS011;54257;54.496;18.412;2022-10-30T04:10:56;5.80;;;1.80;;
67372;SDS011;54257;54.496;18.412;2022-10-30T04:13:23;5.30;;;2.00;;
67372;SDS011;54257;54.496;18.412;2022-10-30T04:15:50;6.00;;;2.70;;
67372;SDS011;54257;54.496;18.412;2022-10-30T04:18:18;4.00;;;2.30;;
67372;SDS011;54257;54.496;18.412;2022-10-30T04:20:45;4.60;;;2.30;;
67372;SDS011;54257;54.496;18.412;2022-10-30T04:23:13;4.10;;;2.10;;
67372;SDS011;54257;54.496;18.412;2022-10-30T04:25:42;5.10;;;2.70;;
67372;SDS011;54257;54.496;18.412;2022-10-30T04:28:09;5.60;;;2.50;;
67372;SDS011;54257;54.496;18.412;2022-10-30T04:30:36;5.10;;;2.30;;
67372;SDS011;54257;54.496;18.412;2022-10-30T04:33:06;8.30;;;2.40;;
67372;SDS011;54257;54.496;18.412;2022-10-30T04:35:37;6.20;;;2.50;;
67372;SDS011;54257;54.496;18.412;2022-10-30T04:38:05;3.80;;;1.90;;
67372;SDS011;54257;54.496;18.412;2022-10-30T04:40:37;5.30;;;2.70;;
67372;SDS011;54257;54.496;18.412;2022-10-30T04:43:06;4.50;;;2.20;;
67372;SDS011;54257;54.496;18.412;2022-10-30T04:45:34;5.20;;;2.30;;
67372;SDS011;54257;54.496;18.412;2022-10-30T04:48:20;3.50;;;2.00;;
67372;SDS011;54257;54.496;18.412;2022-10-30T04:50:47;4.70;;;1.90;;
67372;SDS011;54257;54.496;18.412;2022-10-30T04:53:14;3.20;;;1.90;;
67372;SDS011;54257;54.496;18.412;2022-10-30T04:55:43;3.70;;;2.00;;
67372;SDS011;54257;54.496;18.412;2022-10-30T04:58:11;4.90;;;2.50;;
67372;SDS011;54257;54.496;18.412;2022-10-30T05:00:39;5.90;;;2.40;;
67372;SDS011;54257;54.496;18.412;2022-10-30T05:03:07;4.60;;;3.10;;
67372;SDS011;54257;54.496;18.412;2022-10-30T05:05:41;4.70;;;2.70;;
67372;SDS011;54257;54.496;18.412;2022-10-30T05:08:08;5.50;;;2.60;;
67372;SDS011;54257;54.496;18.412;2022-10-30T05:10:37;4.90;;;2.50;;
67372;SDS011;54257;54.496;18.412;2022-10-30T05:13:06;4.00;;;2.40;;
67372;SDS011;54257;54.496;18.412;2022-10-30T05:15:35;4.00;;;2.70;;
67372;SDS011;54257;54.496;18.412;2022-10-30T05:18:02;4.20;;;2.60;;
67372;SDS011;54257;54.496;18.412;2022-10-30T05:20:29;6.30;;;3.00;;
67372;SDS011;54257;54.496;18.412;2022-10-30T05:22:57;4.30;;;2.60;;
67372;SDS011;54257;54.496;18.412;2022-10-30T05:25:25;4.70;;;2.30;;
67372;SDS011;54257;54.496;18.412;2022-10-30T05:27:59;3.70;;;2.60;;
67372;SDS011;54257;54.496;18.412;2022-10-30T05:30:28;7.30;;;2.90;;
67372;SDS011;54257;54.496;18.412;2022-10-30T05:32:57;5.90;;;2.70;;
67372;SDS011;54257;54.496;18.412;2022-10-30T05:35:28;4.80;;;2.20;;
67372;SDS011;54257;54.496;18.412;2022-10-30T05:37:58;3.60;;;2.20;;
67372;SDS011;54257;54.496;18.412;2022-10-30T05:40:29;4.30;;;2.30;;
67372;SDS011;54257;54.496;18.412;2022-10-30T05:42:57;4.20;;;2.50;;
67372;SDS011;54257;54.496;18.412;2022-10-30T05:45:24;3.80;;;2.30;;
67372;SDS011;54257;54.496;18.412;2022-10-30T05:50:22;5.70;;;2.80;;
67372;SDS011;54257;54.496;18.412;2022-10-30T05:52:53;3.30;;;2.70;;
67372;SDS011;54257;54.496;18.412;2022-10-30T05:55:24;11.10;;;3.10;;
67372;SDS011;54257;54.496;18.412;2022-10-30T05:57:56;7.90;;;3.10;;
67372;SDS011;54257;54.496;18.412;2022-10-30T06:00:24;6.90;;;2.50;;
67372;SDS011;54257;54.496;18.412;2022-10-30T06:02:57;4.20;;;2.80;;
67372;SDS011;54257;54.496;18.412;2022-10-30T06:05:26;4.40;;;2.60;;
67372;SDS011;54257;54.496;18.412;2022-10-30T06:07:55;5.40;;;2.60;;
67372;SDS011;54257;54.496;18.412;2022-10-30T06:10:23;10.20;;;2.80;;
67372;SDS011;54257;54.496;18.412;2022-10-30T06:12:51;5.90;;;2.80;;
67372;SDS011;54257;54.496;18.412;2022-10-30T06:15:23;6.10;;;2.70;;
67372;SDS011;54257;54.496;18.412;2022-10-30T06:17:50;9.20;;;2.70;;
67372;SDS011;54257;54.496;18.412;2022-10-30T06:20:18;4.60;;;2.80;;
67372;SDS011;54257;54.496;18.412;2022-10-30T06:22:57;6.10;;;2.80;;
67372;SDS011;54257;54.496;18.412;2022-10-30T06:25:30;4.70;;;2.70;;
67372;SDS011;54257;54.496;18.412;2022-10-30T06:27:59;7.30;;;3.00;;
67372;SDS011;54257;54.496;18.412;2022-10-30T06:30:27;4.60;;;3.00;;
67372;SDS011;54257;54.496;18.412;2022-10-30T06:33:04;6.70;;;3.10;;
67372;SDS011;54257;54.496;18.412;2022-10-30T06:35:31;4.60;;;3.00;;
67372;SDS011;54257;54.496;18.412;2022-10-30T06:37:58;10.40;;;4.40;;
67372;SDS011;54257;54.496;18.412;2022-10-30T06:40:28;5.10;;;3.10;;
67372;SDS011;54257;54.496;18.412;2022-10-30T06:42:55;7.70;;;2.90;;
67372;SDS011;54257;54.496;18.412;2022-10-30T06:45:23;7.40;;;2.90;;
67372;SDS011;54257;54.496;18.412;2022-10-30T06:47:50;6.90;;;3.10;;
67372;SDS011;54257;54.496;18.412;2022-10-30T06:50:18;9.90;;;3.90;;
67372;SDS011;54257;54.496;18.412;2022-10-30T06:52:47;5.90;;;3.30;;
67372;SDS011;54257;54.496;18.412;2022-10-30T06:55:15;5.10;;;3.00;;
67372;SDS011;54257;54.496;18.412;2022-10-30T06:57:42;6.00;;;3.80;;
67372;SDS011;54257;54.496;18.412;2022-10-30T07:00:10;7.20;;;3.40;;
67372;SDS011;54257;54.496;18.412;2022-10-30T07:02:38;8.70;;;4.10;;
67372;SDS011;54257;54.496;18.412;2022-10-30T07:05:05;6.00;;;3.30;;
67372;SDS011;54257;54.496;18.412;2022-10-30T07:07:32;11.90;;;5.20;;
67372;SDS011;54257;54.496;18.412;2022-10-30T07:09:59;8.70;;;3.80;;
67372;SDS011;54257;54.496;18.412;2022-10-30T07:12:26;7.00;;;3.50;;
67372;SDS011;54257;54.496;18.412;2022-10-30T07:14:53;5.60;;;3.60;;
67372;SDS011;54257;54.496;18.412;2022-10-30T07:17:20;9.90;;;4.80;;
67372;SDS011;54257;54.496;18.412;2022-10-30T07:19:47;10.70;;;5.10;;
67372;SDS011;54257;54.496;18.412;2022-10-30T07:22:14;8.00;;;4.30;;
67372;SDS011;54257;54.496;18.412;2022-10-30T07:24:41;6.10;;;4.50;;
67372;SDS011;54257;54.496;18.412;2022-10-30T07:27:08;7.20;;;4.20;;
67372;SDS011;54257;54.496;18.412;2022-10-30T07:29:35;6.90;;;4.00;;
67372;SDS011;54257;54.496;18.412;2022-10-30T07:32:02;7.10;;;4.00;;
67372;SDS011;54257;54.496;18.412;2022-10-30T07:34:29;7.90;;;3.80;;
67372;SDS011;54257;54.496;18.412;2022-10-30T07:36:57;8.30;;;4.30;;
67372;SDS011;54257;54.496;18.412;2022-10-30T07:39:24;7.20;;;4.30;;
67372;SDS011;54257;54.496;18.412;2022-10-30T07:41:51;8.80;;;4.10;;
67372;SDS011;54257;54.496;18.412;2022-10-30T07:44:18;9.10;;;4.50;;
67372;SDS011;54257;54.496;18.412;2022-10-30T07:46:45;5.90;;;4.10;;
67372;SDS011;54257;54.496;18.412;2022-10-30T07:49:12;8.10;;;4.40;;
67372;SDS011;54257;54.496;18.412;2022-10-30T07:51:39;5.20;;;3.90;;
67372;SDS011;54257;54.496;18.412;2022-10-30T07:54:06;6.80;;;4.10;;
67372;SDS011;54257;54.496;18.412;2022-10-30T07:56:33;6.80;;;3.70;;
67372;SDS011;54257;54.496;18.412;2022-10-30T07:59:00;8.40;;;4.00;;
67372;SDS011;54257;54.496;18.412;2022-10-30T08:01:27;6.80;;;4.10;;
67372;SDS011;54257;54.496;18.412;2022-10-30T08:03:54;7.80;;;4.00;;
67372;SDS011;54257;54.496;18.412;2022-10-30T08:06:20;6.20;;;4.20;;
67372;SDS011;54257;54.496;18.412;2022-10-30T08:08:47;9.30;;;4.00;;
67372;SDS011;54257;54.496;18.412;2022-10-30T08:11:14;6.40;;;4.20;;
67372;SDS011;54257;54.496;18.412;2022-10-30T08:13:43;7.00;;;4.50;;
67372;SDS011;54257;54.496;18.412;2022-10-30T08:16:10;5.30;;;3.80;;
67372;SDS011;54257;54.496;18.412;2022-10-30T08:18:38;8.90;;;4.30;;
67372;SDS011;54257;54.496;18.412;2022-10-30T08:21:08;6.20;;;3.50;;
67372;SDS011;54257;54.496;18.412;2022-10-30T08:23:35;9.30;;;3.90;;
67372;SDS011;54257;54.496;18.412;2022-10-30T08:26:03;6.20;;;3.60;;
67372;SDS011;54257;54.496;18.412;2022-10-30T08:28:31;5.50;;;3.10;;
67372;SDS011;54257;54.496;18.412;2022-10-30T08:30:58;7.50;;;3.70;;
67372;SDS011;54257;54.496;18.412;2022-10-30T08:33:26;6.10;;;3.60;;
67372;SDS011;54257;54.496;18.412;2022-10-30T08:35:54;7.60;;;3.60;;
67372;SDS011;54257;54.496;18.412;2022-10-30T08:38:22;8.30;;;3.90;;
67372;SDS011;54257;54.496;18.412;2022-10-30T08:40:50;7.40;;;3.40;;
67372;SDS011;54257;54.496;18.412;2022-10-30T08:43:18;8.80;;;3.20;;
67372;SDS011;54257;54.496;18.412;2022-10-30T08:45:46;6.50;;;3.60;;
67372;SDS011;54257;54.496;18.412;2022-10-30T08:48:14;5.60;;;3.20;;
67372;SDS011;54257;54.496;18.412;2022-10-30T08:50:42;3.60;;;3.20;;
67372;SDS011;54257;54.496;18.412;2022-10-30T08:53:11;6.10;;;2.80;;
67372;SDS011;54257;54.496;18.412;2022-10-30T08:55:39;6.50;;;2.90;;
67372;SDS011;54257;54.496;18.412;2022-10-30T08:58:07;8.10;;;3.70;;
67372;SDS011;54257;54.496;18.412;2022-10-30T09:00:34;6.40;;;3.20;;
67372;SDS011;54257;54.496;18.412;2022-10-30T09:03:01;7.70;;;3.20;;
67372;SDS011;54257;54.496;18.412;2022-10-30T09:05:29;5.90;;;2.80;;
67372;SDS011;54257;54.496;18.412;2022-10-30T09:07:56;5.20;;;3.30;;
67372;SDS011;54257;54.496;18.412;2022-10-30T09:10:26;7.30;;;3.60;;
67372;SDS011;54257;54.496;18.412;2022-10-30T09:12:54;5.80;;;3.20;;
67372;SDS011;54257;54.496;18.412;2022-10-30T09:15:22;5.60;;;3.30;;
67372;SDS011;54257;54.496;18.412;2022-10-30T09:20:27;8.80;;;3.30;;
67372;SDS011;54257;54.496;18.412;2022-10-30T09:22:55;4.60;;;2.90;;
67372;SDS011;54257;54.496;18.412;2022-10-30T09:25:22;6.30;;;3.70;;
67372;SDS011;54257;54.496;18.412;2022-10-30T09:27:49;9.60;;;3.00;;
67372;SDS011;54257;54.496;18.412;2022-10-30T09:30:16;6.00;;;3.30;;
67372;SDS011;54257;54.496;18.412;2022-10-30T09:32:43;7.00;;;2.90;;
67372;SDS011;54257;54.496;18.412;2022-10-30T09:35:10;6.90;;;3.10;;
67372;SDS011;54257;54.496;18.412;2022-10-30T09:37:37;6.30;;;3.10;;
67372;SDS011;54257;54.496;18.412;2022-10-30T09:40:05;5.00;;;2.70;;
67372;SDS011;54257;54.496;18.412;2022-10-30T09:42:40;4.70;;;3.10;;
67372;SDS011;54257;54.496;18.412;2022-10-30T09:48:22;5.10;;;3.40;;
67372;SDS011;54257;54.496;18.412;2022-10-30T09:57:00;3.70;;;2.50;;
67372;SDS011;54257;54.496;18.412;2022-10-30T10:02:37;6.00;;;3.00;;
67372;SDS011;54257;54.496;18.412;2022-10-30T10:08:33;4.10;;;2.60;;
67372;SDS011;54257;54.496;18.412;2022-10-30T10:11:12;3.80;;;2.70;;
67372;SDS011;54257;54.496;18.412;2022-10-30T10:13:49;6.40;;;2.40;;
67372;SDS011;54257;54.496;18.412;2022-10-30T10:16:20;4.70;;;2.70;;
67372;SDS011;54257;54.496;18.412;2022-10-30T10:21:27;4.60;;;2.80;;
67372;SDS011;54257;54.496;18.412;2022-10-30T10:23:56;6.30;;;3.00;;
67372;SDS011;54257;54.496;18.412;2022-10-30T10:26:31;4.90;;;2.90;;
67372;SDS011;54257;54.496;18.412;2022-10-30T10:29:39;3.50;;;2.80;;
67372;SDS011;54257;54.496;18.412;2022-10-30T10:34:49;5.40;;;2.80;;
67372;SDS011;54257;54.496;18.412;2022-10-30T10:40:17;6.50;;;3.70;;
67372;SDS011;54257;54.496;18.412;2022-10-30T10:51:20;7.60;;;4.30;;
67372;SDS011;54257;54.496;18.412;2022-10-30T10:53:52;5.60;;;3.60;;
67372;SDS011;54257;54.496;18.412;2022-10-30T10:56:42;5.00;;;3.10;;
67372;SDS011;54257;54.496;18.412;2022-10-30T10:59:16;4.60;;;3.10;;
67372;SDS011;54257;54.496;18.412;2022-10-30T11:01:55;7.00;;;3.80;;
67372;SDS011;54257;54.496;18.412;2022-10-30T11:07:13;7.10;;;3.20;;
67372;SDS011;54257;54.496;18.412;2022-10-30T11:09:51;4.00;;;2.70;;
67372;SDS011;54257;54.496;18.412;2022-10-30T11:12:25;4.70;;;3.20;;
67372;SDS011;54257;54.496;18.412;2022-10-30T11:14:56;7.90;;;3.70;;
67372;SDS011;54257;54.496;18.412;2022-10-30T11:17:26;4.90;;;3.40;;
67372;SDS011;54257;54.496;18.412;2022-10-30T11:20:02;6.80;;;4.10;;
67372;SDS011;54257;54.496;18.412;2022-10-30T11:22:42;5.90;;;3.00;;
67372;SDS011;54257;54.496;18.412;2022-10-30T11:25:17;5.00;;;3.40;;
67372;SDS011;54257;54.496;18.412;2022-10-30T11:27:52;5.70;;;3.70;;
67372;SDS011;54257;54.496;18.412;2022-10-30T11:30:22;5.50;;;3.20;;
67372;SDS011;54257;54.496;18.412;2022-10-30T11:32:52;6.60;;;3.20;;
67372;SDS011;54257;54.496;18.412;2022-10-30T11:35:21;5.10;;;2.90;;
67372;SDS011;54257;54.496;18.412;2022-10-30T11:37:49;5.80;;;2.60;;
67372;SDS011;54257;54.496;18.412;2022-10-30T11:40:19;5.40;;;3.20;;
67372;SDS011;54257;54.496;18.412;2022-10-30T11:45:25;6.40;;;2.70;;
67372;SDS011;54257;54.496;18.412;2022-10-30T11:47:56;5.30;;;2.70;;
67372;SDS011;54257;54.496;18.412;2022-10-30T11:50:26;5.20;;;2.80;;
67372;SDS011;54257;54.496;18.412;2022-10-30T11:53:00;7.40;;;3.30;;
67372;SDS011;54257;54.496;18.412;2022-10-30T11:55:39;8.80;;;4.20;;
67372;SDS011;54257;54.496;18.412;2022-10-30T11:58:19;7.20;;;4.80;;
67372;SDS011;54257;54.496;18.412;2022-10-30T12:03:55;9.90;;;4.80;;
67372;SDS011;54257;54.496;18.412;2022-10-30T12:06:38;6.50;;;4.90;;
67372;SDS011;54257;54.496;18.412;2022-10-30T12:11:46;8.60;;;5.70;;
67372;SDS011;54257;54.496;18.412;2022-10-30T12:14:22;8.10;;;4.90;;
67372;SDS011;54257;54.496;18.412;2022-10-30T12:16:55;6.60;;;4.90;;
67372;SDS011;54257;54.496;18.412;2022-10-30T12:19:23;6.20;;;4.50;;
67372;SDS011;54257;54.496;18.412;2022-10-30T12:21:52;6.80;;;4.20;;
67372;SDS011;54257;54.496;18.412;2022-10-30T12:24:32;4.80;;;3.80;;
67372;SDS011;54257;54.496;18.412;2022-10-30T12:27:02;6.10;;;4.40;;
67372;SDS011;54257;54.496;18.412;2022-10-30T12:32:26;9.10;;;4.80;;
67372;SDS011;54257;54.496;18.412;2022-10-30T12:35:01;7.20;;;4.30;;
67372;SDS011;54257;54.496;18.412;2022-10-30T12:37:39;6.00;;;4.50;;
67372;SDS011;54257;54.496;18.412;2022-10-30T12:54:57;7.40;;;4.80;;
67372;SDS011;54257;54.496;18.412;2022-10-30T12:57:31;6.60;;;4.50;;
67372;SDS011;54257;54.496;18.412;2022-10-30T13:00:02;7.40;;;4.30;;
67372;SDS011;54257;54.496;18.412;2022-10-30T13:02:48;6.10;;;4.30;;
67372;SDS011;54257;54.496;18.412;2022-10-30T13:05:32;7.80;;;4.90;;
67372;SDS011;54257;54.496;18.412;2022-10-30T13:10:52;11.60;;;5.80;;
67372;SDS011;54257;54.496;18.412;2022-10-30T13:13:27;7.00;;;5.30;;
67372;SDS011;54257;54.496;18.412;2022-10-30T13:16:26;9.70;;;5.70;;
67372;SDS011;54257;54.496;18.412;2022-10-30T13:18:55;7.80;;;6.30;;
67372;SDS011;54257;54.496;18.412;2022-10-30T13:21:30;11.20;;;6.50;;
67372;SDS011;54257;54.496;18.412;2022-10-30T13:26:41;9.20;;;5.70;;
67372;SDS011;54257;54.496;18.412;2022-10-30T13:40:20;8.30;;;5.70;;
67372;SDS011;54257;54.496;18.412;2022-10-30T13:53:33;7.60;;;4.80;;
67372;SDS011;54257;54.496;18.412;2022-10-30T13:56:03;7.80;;;4.90;;
67372;SDS011;54257;54.496;18.412;2022-10-30T14:01:49;9.70;;;4.50;;
67372;SDS011;54257;54.496;18.412;2022-10-30T14:04:42;8.00;;;5.00;;
67372;SDS011;54257;54.496;18.412;2022-10-30T14:10:06;7.90;;;4.70;;
67372;SDS011;54257;54.496;18.412;2022-10-30T14:12:49;4.50;;;4.00;;
67372;SDS011;54257;54.496;18.412;2022-10-30T14:20:40;5.60;;;4.20;;
67372;SDS011;54257;54.496;18.412;2022-10-30T14:28:32;7.80;;;4.70;;
67372;SDS011;54257;54.496;18.412;2022-10-30T14:33:41;8.50;;;5.00;;
67372;SDS011;54257;54.496;18.412;2022-10-30T14:55:24;9.30;;;6.60;;
67372;SDS011;54257;54.496;18.412;2022-10-30T15:00:28;8.40;;;5.50;;
67372;SDS011;54257;54.496;18.412;2022-10-30T15:08:32;7.60;;;5.60;;
67372;SDS011;54257;54.496;18.412;2022-10-30T15:11:15;7.60;;;5.90;;
67372;SDS011;54257;54.496;18.412;2022-10-30T15:13:52;6.20;;;5.30;;
67372;SDS011;54257;54.496;18.412;2022-10-30T15:16:25;7.00;;;4.90;;
67372;SDS011;54257;54.496;18.412;2022-10-30T15:19:11;9.40;;;5.40;;
67372;SDS011;54257;54.496;18.412;2022-10-30T15:21:42;8.80;;;6.30;;
67372;SDS011;54257;54.496;18.412;2022-10-30T15:24:13;12.60;;;7.40;;
67372;SDS011;54257;54.496;18.412;2022-10-30T15:26:52;12.30;;;8.60;;
67372;SDS011;54257;54.496;18.412;2022-10-30T15:29:23;11.70;;;7.90;;
67372;SDS011;54257;54.496;18.412;2022-10-30T15:31:57;13.40;;;8.50;;
67372;SDS011;54257;54.496;18.412;2022-10-30T15:34:29;9.60;;;7.20;;
67372;SDS011;54257;54.496;18.412;2022-10-30T15:37:09;10.70;;;7.00;;
67372;SDS011;54257;54.496;18.412;2022-10-30T15:39:38;10.70;;;7.50;;
67372;SDS011;54257;54.496;18.412;2022-10-30T15:42:05;15.00;;;10.10;;
67372;SDS011;54257;54.496;18.412;2022-10-30T15:44:33;46.00;;;33.60;;
67372;SDS011;54257;54.496;18.412;2022-10-30T15:47:02;22.50;;;16.60;;
67372;SDS011;54257;54.496;18.412;2022-10-30T15:49:36;12.90;;;9.20;;
67372;SDS011;54257;54.496;18.412;2022-10-30T15:55:07;13.40;;;8.70;;
67372;SDS011;54257;54.496;18.412;2022-10-30T15:57:42;14.10;;;10.70;;
67372;SDS011;54257;54.496;18.412;2022-10-30T16:05:47;21.00;;;9.40;;
67372;SDS011;54257;54.496;18.412;2022-10-30T16:08:21;12.60;;;8.70;;
67372;SDS011;54257;54.496;18.412;2022-10-30T16:10:52;12.90;;;9.20;;
67372;SDS011;54257;54.496;18.412;2022-10-30T16:13:27;12.30;;;9.00;;
67372;SDS011;54257;54.496;18.412;2022-10-30T16:15:55;13.60;;;9.10;;
67372;SDS011;54257;54.496;18.412;2022-10-30T16:18:26;10.00;;;8.00;;
67372;SDS011;54257;54.496;18.412;2022-10-30T16:20:59;12.60;;;9.20;;
67372;SDS011;54257;54.496;18.412;2022-10-30T16:23:37;15.80;;;9.90;;
67372;SDS011;54257;54.496;18.412;2022-10-30T16:26:11;13.20;;;9.80;;
67372;SDS011;54257;54.496;18.412;2022-10-30T16:28:55;16.40;;;10.70;;
67372;SDS011;54257;54.496;18.412;2022-10-30T16:31:23;16.20;;;11.30;;
67372;SDS011;54257;54.496;18.412;2022-10-30T16:33:56;18.30;;;13.60;;
67372;SDS011;54257;54.496;18.412;2022-10-30T16:36:25;19.10;;;14.40;;
67372;SDS011;54257;54.496;18.412;2022-10-30T16:38:52;21.30;;;16.70;;
67372;SDS011;54257;54.496;18.412;2022-10-30T16:41:21;21.10;;;16.30;;
67372;SDS011;54257;54.496;18.412;2022-10-30T16:46:44;19.50;;;14.90;;
67372;SDS011;54257;54.496;18.412;2022-10-30T16:49:17;16.50;;;12.10;;
67372;SDS011;54257;54.496;18.412;2022-10-30T16:51:49;16.20;;;12.40;;
67372;SDS011;54257;54.496;18.412;2022-10-30T16:54:22;18.00;;;13.30;;
67372;SDS011;54257;54.496;18.412;2022-10-30T16:56:52;16.80;;;11.60;;
67372;SDS011;54257;54.496;18.412;2022-10-30T16:59:31;13.40;;;9.70;;
67372;SDS011;54257;54.496;18.412;2022-10-30T17:02:04;12.90;;;10.60;;
67372;SDS011;54257;54.496;18.412;2022-10-30T17:04:41;14.00;;;11.80;;
67372;SDS011;54257;54.496;18.412;2022-10-30T17:07:16;14.70;;;10.90;;
67372;SDS011;54257;54.496;18.412;2022-10-30T17:09:50;14.50;;;11.50;;
67372;SDS011;54257;54.496;18.412;2022-10-30T17:12:25;17.40;;;11.60;;
67372;SDS011;54257;54.496;18.412;2022-10-30T17:15:00;13.30;;;10.80;;
67372;SDS011;54257;54.496;18.412;2022-10-30T17:17:38;13.00;;;10.10;;
67372;SDS011;54257;54.496;18.412;2022-10-30T17:22:46;15.70;;;11.00;;
67372;SDS011;54257;54.496;18.412;2022-10-30T17:25:29;13.30;;;10.50;;
67372;SDS011;54257;54.496;18.412;2022-10-30T17:28:02;12.80;;;10.30;;
67372;SDS011;54257;54.496;18.412;2022-10-30T17:30:30;12.60;;;9.40;;
67372;SDS011;54257;54.496;18.412;2022-10-30T17:33:01;13.60;;;9.80;;
67372;SDS011;54257;54.496;18.412;2022-10-30T17:35:29;11.30;;;8.70;;
67372;SDS011;54257;54.496;18.412;2022-10-30T17:37:56;14.60;;;8.70;;
67372;SDS011;54257;54.496;18.412;2022-10-30T17:40:23;13.20;;;9.00;;
67372;SDS011;54257;54.496;18.412;2022-10-30T17:42:50;10.60;;;8.50;;
67372;SDS011;54257;54.496;18.412;2022-10-30T17:45:18;12.10;;;8.50;;
67372;SDS011;54257;54.496;18.412;2022-10-30T17:47:44;9.00;;;7.90;;
67372;SDS011;54257;54.496;18.412;2022-10-30T17:50:12;9.60;;;7.40;;